Flight Number: EUR1469 Duration: 1:15
Departure: Arhangelsk (ULAA) at 18:15 Distance: 410 Nm
Arrival: St.Petersburg Pulkovo (ULLI) at 19:30 Equipment: B737

Weather Information
Arhangel'Sk, Russia (ULAA) 64-30N 040-44E 8M Jan 23, 2018 - 04:30 AM EST / 2018.01.23 0930 UTC
Wind: from the S (170 degrees) at 9 MPH (8 KT) (direction variable):0
Visibility: 1 mile(s):0
Sky conditions: mostly cloudy Weather: light snow Temperature: 8 F (-13 C)
Windchill: -5 F (-21 C):2 Dew Point: 5 F (-15 C) Relative Humidity: 84% Pressure (altimeter): 30.00 in. Hg (1016 hPa)
ob: ULAA 230930Z 17004MPS 120V210 2500 -SN BKN007 M13/M15 Q1016 R08/490540 NOSIG RMK QFE761/1015 cycle: 9
Sunrise: 06:35 Sunset: 12:22 (UTC)

St. Peterburg, Russia (ULLI) 59-58N 030-18E 6M Jan 23, 2018 - 04:30 AM EST / 2018.01.23 0930 UTC
Wind: Calm:0
Visibility: greater than 7 mile(s):0
Sky conditions: mostly cloudy Temperature: 10 F (-12 C) Dew Point: 6 F (-14 C) Relative Humidity: 85% Pressure (altimeter): 30.12 in. Hg (1020 hPa)
ob: ULLI 230930Z 00000MPS 9999 FEW010 BKN016 M12/M14 Q1020 R88/420345 NOSIG cycle: 9
Sunrise: 06:35 Sunset: 13:45 (UTC)

TAF:2018/01/23 09:21 TAF TAF ULLI 230759Z 2309/2409 23003MPS 6000 BKN011 BKN020 TEMPO 2309/2320 32002MPS 3100 -SN BKN011 BKN015 BECMG 2320/2321 18003MPS 3100 -SN BR TEMPO 2320/2406 OVC004 BECMG 2406/2408 18007G12MPS 6000 NSW

Previous Pireps for this route
Date Aircraft Flight time Fuel used Landing rate On time
2013-06-26MD-8101.2810457-178Charter
2015-06-26B73701.287945-177Yes
2016-01-18B73701.208000-174Yes
2016-08-30B73701.1313062-86Yes
(pireps marked green are flown by you)

Route map